Time;durP1;ratioP1;P1;durP2;ratioP2;P2;SDS_P1;SDS_P2;PMS_P1;PMS_P2;Temp;Humidity;BMP_temperature;BMP_pressure;BME280_temperature;BME280_humidity;BME280_pressure;Samples;Min_cycle;Max_cycle;Signal;HPM_P1;HPM_P2
2022/01/30 00:02:15;;;;;;;7.18;2.47;;;;;;;;;;4970586;28;20027;-73
2022/01/30 00:04:40;;;;;;;11.20;3.30;;;;;;;;;;4971789;28;20094;-72
2022/01/30 00:07:06;;;;;;;8.48;3.25;;;;;;;;;;4970353;28;20465;-73
2022/01/30 00:09:31;;;;;;;9.95;3.13;;;;;;;;;;4971545;28;20034;-73
2022/01/30 00:12:00;;;;;;;8.70;2.97;;;;;;;;;;4970075;28;20037;-73
2022/01/30 00:14:29;;;;;;;8.35;3.00;;;;;;;;;;4972055;28;20033;-73
2022/01/30 00:17:04;;;;;;;12.70;4.15;;;;;;;;;;4971400;28;20400;-73
2022/01/30 00:22:15;;;;;;;8.63;4.07;;;;;;;;;;4971214;28;20030;-73
2022/01/30 00:24:49;;;;;;;7.57;2.83;;;;;;;;;;4971904;28;20026;-74
2022/01/30 00:27:26;;;;;;;17.00;3.30;;;;;;;;;;4969954;28;20038;-73
2022/01/30 00:29:52;;;;;;;11.70;3.38;;;;;;;;;;4972398;28;20030;-73
2022/01/30 00:32:17;;;;;;;12.32;3.40;;;;;;;;;;4971269;28;20035;-72
2022/01/30 00:34:43;;;;;;;10.07;3.10;;;;;;;;;;4971461;28;20056;-72
2022/01/30 00:37:08;;;;;;;10.85;3.40;;;;;;;;;;4971205;28;20066;-73
2022/01/30 00:39:34;;;;;;;10.00;3.58;;;;;;;;;;4972164;28;20061;-72
2022/01/30 00:41:59;;;;;;;12.10;3.95;;;;;;;;;;4971632;28;20018;-73
2022/01/30 00:44:24;;;;;;;11.90;3.65;;;;;;;;;;4970991;28;20041;-73
2022/01/30 00:46:49;;;;;;;10.70;3.40;;;;;;;;;;4971701;28;20030;-73
2022/01/30 00:49:15;;;;;;;9.65;3.30;;;;;;;;;;4971133;28;20042;-72
2022/01/30 00:51:40;;;;;;;9.88;3.80;;;;;;;;;;4971692;28;20057;-73
2022/01/30 00:54:05;;;;;;;7.20;2.92;;;;;;;;;;4971349;28;20037;-74
2022/01/30 00:56:31;;;;;;;15.23;3.75;;;;;;;;;;4971350;28;20476;-73
2022/01/30 00:58:57;;;;;;;10.43;3.70;;;;;;;;;;4970887;28;20039;-72
2022/01/30 01:01:22;;;;;;;12.65;3.47;;;;;;;;;;4970248;28;20027;-73
2022/01/30 01:03:48;;;;;;;13.52;3.33;;;;;;;;;;4970937;28;20030;-73
2022/01/30 01:06:13;;;;;;;10.55;4.00;;;;;;;;;;4971227;28;20121;-72
2022/01/30 01:08:55;;;;;;;14.48;3.50;;;;;;;;;;4970898;28;20485;-73
2022/01/30 01:24:11;;;;;;;10.85;3.15;;;;;;;;;;4971081;28;20026;-73
2022/01/30 01:26:37;;;;;;;8.73;3.30;;;;;;;;;;4970929;28;20022;-72
2022/01/30 01:29:04;;;;;;;16.85;3.60;;;;;;;;;;4970619;28;20563;-74
2022/01/30 01:31:29;;;;;;;15.82;3.35;;;;;;;;;;4971532;28;20031;-72
2022/01/30 01:34:21;;;;;;;13.07;3.50;;;;;;;;;;4970566;28;20089;-74
2022/01/30 01:36:47;;;;;;;12.95;3.80;;;;;;;;;;4971095;28;20031;-72
2022/01/30 01:39:12;;;;;;;12.98;3.58;;;;;;;;;;4970832;28;20452;-73
2022/01/30 01:41:37;;;;;;;19.20;3.60;;;;;;;;;;4971670;28;20038;-72
2022/01/30 01:44:04;;;;;;;15.48;3.72;;;;;;;;;;4971101;28;20054;-72
2022/01/30 01:46:34;;;;;;;12.32;3.00;;;;;;;;;;4971396;28;20524;-73
2022/01/30 01:49:00;;;;;;;15.75;3.35;;;;;;;;;;4971023;28;20030;-73
2022/01/30 01:51:31;;;;;;;17.60;3.30;;;;;;;;;;4971600;28;20496;-72
2022/01/30 01:53:57;;;;;;;14.43;3.40;;;;;;;;;;4970916;28;20114;-72
2022/01/30 01:56:24;;;;;;;13.70;3.08;;;;;;;;;;4971460;28;20035;-72
2022/01/30 01:58:49;;;;;;;12.23;3.10;;;;;;;;;;4970771;28;20031;-73
2022/01/30 02:01:15;;;;;;;15.77;3.78;;;;;;;;;;4971128;28;20034;-73
2022/01/30 02:03:43;;;;;;;12.95;2.97;;;;;;;;;;4970621;28;20500;-72
2022/01/30 02:06:12;;;;;;;11.10;3.05;;;;;;;;;;4971150;28;20436;-73
2022/01/30 02:08:42;;;;;;;13.63;3.42;;;;;;;;;;4971218;28;20431;-72
2022/01/30 02:24:56;;;;;;;12.05;3.10;;;;;;;;;;4970884;28;20066;-73
2022/01/30 02:27:25;;;;;;;19.23;3.35;;;;;;;;;;4971072;28;20034;-72
2022/01/30 02:29:51;;;;;;;11.68;3.25;;;;;;;;;;4970478;28;20026;-73
2022/01/30 02:32:17;;;;;;;19.25;3.90;;;;;;;;;;4970701;28;20054;-73
2022/01/30 02:34:42;;;;;;;18.15;3.42;;;;;;;;;;4972967;28;20054;-73
2022/01/30 02:37:08;;;;;;;11.70;3.65;;;;;;;;;;4974864;28;20031;-72
2022/01/30 02:39:33;;;;;;;16.00;3.33;;;;;;;;;;4974243;28;20527;-74
2022/01/30 02:41:59;;;;;;;14.50;3.53;;;;;;;;;;4974482;28;20596;-72
2022/01/30 02:44:31;;;;;;;15.93;3.20;;;;;;;;;;4973712;28;20025;-73
2022/01/30 02:47:01;;;;;;;13.68;3.22;;;;;;;;;;4973158;28;20109;-73
2022/01/30 02:49:40;;;;;;;10.85;3.00;;;;;;;;;;4973636;28;20079;-72
2022/01/30 02:52:08;;;;;;;11.68;3.15;;;;;;;;;;4974368;28;20022;-72
2022/01/30 02:54:33;;;;;;;7.70;2.35;;;;;;;;;;4973856;28;20031;-73
2022/01/30 02:56:58;;;;;;;10.07;2.70;;;;;;;;;;4974558;28;20038;-72
2022/01/30 02:59:24;;;;;;;15.35;2.58;;;;;;;;;;4973552;28;20054;-73
2022/01/30 03:01:50;;;;;;;15.05;2.83;;;;;;;;;;4973913;28;20026;-72
2022/01/30 03:04:16;;;;;;;11.80;3.80;;;;;;;;;;4973619;28;20142;-73
2022/01/30 03:06:43;;;;;;;15.88;3.55;;;;;;;;;;4972558;28;20050;-74
2022/01/30 03:09:10;;;;;;;10.75;2.95;;;;;;;;;;4973294;28;20030;-73
2022/01/30 03:11:36;;;;;;;15.48;3.10;;;;;;;;;;4974161;28;20524;-73
2022/01/30 03:14:03;;;;;;;14.07;2.80;;;;;;;;;;4973127;28;20050;-73
2022/01/30 03:16:29;;;;;;;12.18;3.30;;;;;;;;;;4972805;28;20053;-74
2022/01/30 03:18:54;;;;;;;11.25;2.88;;;;;;;;;;4972553;28;20027;-74
2022/01/30 03:21:20;;;;;;;15.40;3.30;;;;;;;;;;4973083;28;20042;-73
2022/01/30 03:23:46;;;;;;;11.38;2.80;;;;;;;;;;4973160;28;20019;-73
2022/01/30 03:26:13;;;;;;;8.90;2.90;;;;;;;;;;4972426;28;20030;-73
2022/01/30 03:28:40;;;;;;;13.50;3.03;;;;;;;;;;4973003;28;20144;-73
2022/01/30 03:31:08;;;;;;;15.02;3.53;;;;;;;;;;4972304;28;20138;-73
2022/01/30 03:33:33;;;;;;;12.80;3.50;;;;;;;;;;4972795;28;20087;-73
2022/01/30 03:35:59;;;;;;;10.57;2.78;;;;;;;;;;4972282;28;20489;-74
2022/01/30 03:38:25;;;;;;;7.68;2.90;;;;;;;;;;4972748;28;20034;-73
2022/01/30 03:40:52;;;;;;;5.80;2.50;;;;;;;;;;4972151;28;20107;-73
2022/01/30 03:43:18;;;;;;;11.90;2.63;;;;;;;;;;4972732;28;20092;-73
2022/01/30 03:45:44;;;;;;;10.20;2.50;;;;;;;;;;4970798;28;20337;-74
2022/01/30 03:48:10;;;;;;;10.15;3.53;;;;;;;;;;4972699;28;20023;-74
2022/01/30 03:50:36;;;;;;;12.18;2.97;;;;;;;;;;4971982;28;20034;-73
2022/01/30 03:53:01;;;;;;;9.02;3.28;;;;;;;;;;4972589;28;20495;-73
2022/01/30 03:55:26;;;;;;;14.93;3.47;;;;;;;;;;4971782;28;20492;-73
2022/01/30 03:57:52;;;;;;;11.73;3.13;;;;;;;;;;4972414;28;20531;-74
2022/01/30 04:00:18;;;;;;;12.90;3.55;;;;;;;;;;4971882;28;20031;-73
2022/01/30 04:02:43;;;;;;;11.85;4.90;;;;;;;;;;4972228;28;20408;-73
2022/01/30 04:05:09;;;;;;;15.82;3.45;;;;;;;;;;4971552;28;20037;-73
2022/01/30 04:07:35;;;;;;;13.50;4.13;;;;;;;;;;4972274;28;20038;-75
2022/01/30 04:10:02;;;;;;;15.45;4.40;;;;;;;;;;4971546;28;20065;-74
2022/01/30 04:12:27;;;;;;;15.63;3.97;;;;;;;;;;4971966;28;20031;-73
2022/01/30 04:14:53;;;;;;;13.18;3.60;;;;;;;;;;4971126;28;20041;-73
2022/01/30 04:17:19;;;;;;;11.07;4.13;;;;;;;;;;4972045;28;20097;-73
2022/01/30 04:19:45;;;;;;;14.73;3.17;;;;;;;;;;4971468;28;20031;-74
2022/01/30 04:22:10;;;;;;;9.95;2.90;;;;;;;;;;4971943;28;20093;-73
2022/01/30 04:24:35;;;;;;;13.40;3.15;;;;;;;;;;4971591;28;20027;-74
2022/01/30 04:27:01;;;;;;;15.40;3.70;;;;;;;;;;4971649;28;20034;-74
2022/01/30 04:29:27;;;;;;;11.82;3.58;;;;;;;;;;4971765;28;20109;-73
2022/01/30 04:31:53;;;;;;;11.70;3.55;;;;;;;;;;4971493;28;20030;-73
2022/01/30 04:34:19;;;;;;;13.93;2.80;;;;;;;;;;4972016;28;20026;-73
2022/01/30 04:37:00;;;;;;;14.75;3.47;;;;;;;;;;4971218;28;20092;-73
2022/01/30 04:39:54;;;;;;;9.75;3.03;;;;;;;;;;4972197;28;20023;-73
2022/01/30 04:54:37;;;;;;;13.73;3.35;;;;;;;;;;4971308;28;20413;-73
2022/01/30 05:01:34;;;;;;;9.25;3.65;;;;;;;;;;4971072;28;20477;-73
2022/01/30 05:09:20;;;;;;;10.05;4.05;;;;;;;;;;4971220;28;20140;-73
2022/01/30 05:11:45;;;;;;;10.77;4.38;;;;;;;;;;4970628;28;20438;-73
2022/01/30 05:14:13;;;;;;;13.18;4.05;;;;;;;;;;4970911;28;20536;-74
2022/01/30 05:16:39;;;;;;;13.43;4.22;;;;;;;;;;4970193;28;20162;-73
2022/01/30 05:19:04;;;;;;;14.13;4.32;;;;;;;;;;4970873;28;20101;-73
2022/01/30 05:21:30;;;;;;;10.73;4.00;;;;;;;;;;4970205;28;20564;-73
2022/01/30 05:23:55;;;;;;;12.43;3.83;;;;;;;;;;4970704;28;20137;-73
2022/01/30 05:26:24;;;;;;;11.43;3.63;;;;;;;;;;4970193;28;20037;-74
2022/01/30 05:28:49;;;;;;;14.57;3.55;;;;;;;;;;4970878;28;20529;-74
2022/01/30 05:31:15;;;;;;;12.48;3.15;;;;;;;;;;4970312;28;20105;-73
2022/01/30 05:33:40;;;;;;;12.90;3.58;;;;;;;;;;4970612;28;20026;-73
2022/01/30 05:36:07;;;;;;;8.23;3.28;;;;;;;;;;4969907;28;20077;-73
2022/01/30 05:38:32;;;;;;;11.73;3.20;;;;;;;;;;4970644;28;20400;-73
2022/01/30 05:40:58;;;;;;;9.65;3.92;;;;;;;;;;4970465;28;20077;-73
2022/01/30 05:43:27;;;;;;;14.10;3.63;;;;;;;;;;4970866;28;20057;-74
2022/01/30 05:46:04;;;;;;;10.35;3.83;;;;;;;;;;4969903;28;20026;-73
2022/01/30 05:48:30;;;;;;;14.55;3.72;;;;;;;;;;4970491;28;20031;-73
2022/01/30 05:50:56;;;;;;;12.88;3.80;;;;;;;;;;4969998;28;20035;-73
2022/01/30 05:53:21;;;;;;;10.48;4.30;;;;;;;;;;4970544;28;20034;-73
2022/01/30 05:55:46;;;;;;;12.68;4.47;;;;;;;;;;4969837;28;20077;-73
2022/01/30 05:58:11;;;;;;;8.68;4.50;;;;;;;;;;4970516;28;20026;-73
2022/01/30 06:00:37;;;;;;;11.32;5.25;;;;;;;;;;4970774;28;20031;-73
2022/01/30 06:03:02;;;;;;;16.65;5.07;;;;;;;;;;4969715;28;20496;-74
2022/01/30 06:05:28;;;;;;;16.67;5.72;;;;;;;;;;4970175;28;20085;-73
2022/01/30 06:07:55;;;;;;;12.63;6.15;;;;;;;;;;4970484;28;20084;-73
2022/01/30 06:10:23;;;;;;;14.13;5.65;;;;;;;;;;4974276;28;20053;-73
2022/01/30 06:12:49;;;;;;;13.00;5.45;;;;;;;;;;4973484;28;20027;-73
2022/01/30 06:15:16;;;;;;;13.65;6.07;;;;;;;;;;4973913;28;20026;-73
2022/01/30 06:17:43;;;;;;;14.40;4.88;;;;;;;;;;4973498;28;20045;-73
2022/01/30 06:20:09;;;;;;;12.15;4.85;;;;;;;;;;4974260;28;20057;-73
2022/01/30 06:22:34;;;;;;;14.32;5.00;;;;;;;;;;4973535;28;20034;-73
2022/01/30 06:25:00;;;;;;;7.10;3.17;;;;;;;;;;4972846;28;20018;-73
2022/01/30 06:27:25;;;;;;;10.32;3.67;;;;;;;;;;4973670;28;20397;-73
2022/01/30 06:29:51;;;;;;;19.25;6.57;;;;;;;;;;4974176;28;20023;-73
2022/01/30 06:32:16;;;;;;;16.00;6.45;;;;;;;;;;4972088;28;20076;-73
2022/01/30 06:34:42;;;;;;;10.52;4.30;;;;;;;;;;4973932;28;20023;-74
2022/01/30 06:37:07;;;;;;;14.65;5.72;;;;;;;;;;4973276;28;20078;-73
2022/01/30 06:39:32;;;;;;;10.13;5.75;;;;;;;;;;4973852;28;20325;-74
2022/01/30 06:41:57;;;;;;;19.77;7.22;;;;;;;;;;4973173;28;20029;-74
2022/01/30 06:44:23;;;;;;;19.60;7.68;;;;;;;;;;4973617;28;20025;-73
2022/01/30 06:46:48;;;;;;;18.67;10.27;;;;;;;;;;4972637;28;20101;-73
2022/01/30 06:49:13;;;;;;;16.30;9.10;;;;;;;;;;4973393;28;20041;-73
2022/01/30 06:51:39;;;;;;;21.25;8.63;;;;;;;;;;4972876;28;20046;-73
2022/01/30 06:54:04;;;;;;;15.48;8.60;;;;;;;;;;4973369;28;20078;-74
2022/01/30 06:56:29;;;;;;;22.90;11.60;;;;;;;;;;4972651;28;20031;-73
2022/01/30 06:58:56;;;;;;;22.90;10.02;;;;;;;;;;4973312;28;20050;-73
2022/01/30 07:01:25;;;;;;;20.75;8.85;;;;;;;;;;4973015;28;20098;-73
2022/01/30 07:03:51;;;;;;;23.88;10.82;;;;;;;;;;4973188;28;20022;-73
2022/01/30 07:06:17;;;;;;;21.90;10.95;;;;;;;;;;4973027;28;20034;-73
2022/01/30 07:08:42;;;;;;;23.58;11.40;;;;;;;;;;4972716;28;20031;-73
2022/01/30 07:11:07;;;;;;;19.73;7.80;;;;;;;;;;4973449;28;20022;-73
2022/01/30 07:13:32;;;;;;;20.02;9.85;;;;;;;;;;4972312;28;20058;-73
2022/01/30 07:15:58;;;;;;;21.25;9.52;;;;;;;;;;4972750;28;20023;-73
2022/01/30 07:18:23;;;;;;;18.30;8.23;;;;;;;;;;4972607;28;20026;-73
2022/01/30 07:20:48;;;;;;;18.70;8.18;;;;;;;;;;4973163;28;20451;-73
2022/01/30 07:23:14;;;;;;;16.92;8.43;;;;;;;;;;4972448;28;20077;-74
2022/01/30 07:25:40;;;;;;;21.63;9.23;;;;;;;;;;4972626;28;20035;-74
2022/01/30 07:28:05;;;;;;;16.85;6.93;;;;;;;;;;4972326;28;20500;-74
2022/01/30 07:30:30;;;;;;;17.25;7.65;;;;;;;;;;4972630;28;20073;-73
2022/01/30 07:32:56;;;;;;;18.05;8.32;;;;;;;;;;4972103;28;20030;-73
2022/01/30 07:35:21;;;;;;;16.98;8.13;;;;;;;;;;4972460;28;20105;-73
2022/01/30 07:37:46;;;;;;;17.20;8.48;;;;;;;;;;4972201;28;20539;-73
2022/01/30 07:40:13;;;;;;;15.90;7.90;;;;;;;;;;4972674;28;20440;-74
2022/01/30 07:42:38;;;;;;;17.38;8.48;;;;;;;;;;4972094;28;20556;-74
2022/01/30 07:45:04;;;;;;;19.73;8.30;;;;;;;;;;4972418;28;20107;-73
2022/01/30 07:47:30;;;;;;;16.80;7.22;;;;;;;;;;4972103;28;20019;-73
2022/01/30 07:49:56;;;;;;;16.65;7.93;;;;;;;;;;4972663;28;20548;-73
2022/01/30 07:52:22;;;;;;;16.67;8.88;;;;;;;;;;4971900;28;20037;-73
2022/01/30 07:54:48;;;;;;;11.52;5.43;;;;;;;;;;4970574;28;20019;-73
2022/01/30 07:57:14;;;;;;;13.60;5.20;;;;;;;;;;4972016;28;20042;-73
2022/01/30 07:59:40;;;;;;;11.85;5.43;;;;;;;;;;4972058;28;20345;-74
2022/01/30 08:02:06;;;;;;;23.05;10.52;;;;;;;;;;4971553;28;20026;-73
2022/01/30 08:04:31;;;;;;;25.20;14.18;;;;;;;;;;4972156;28;20027;-73
2022/01/30 08:06:56;;;;;;;22.92;10.13;;;;;;;;;;4970064;28;20493;-73
2022/01/30 08:09:21;;;;;;;29.85;15.15;;;;;;;;;;4968354;28;20119;-74
2022/01/30 08:11:47;;;;;;;23.13;10.50;;;;;;;;;;4975889;28;20022;-73
2022/01/30 08:14:12;;;;;;;25.35;11.05;;;;;;;;;;4982268;28;20507;-73
2022/01/30 08:16:38;;;;;;;15.95;6.28;;;;;;;;;;4983822;28;20058;-73
2022/01/30 08:19:04;;;;;;;16.33;5.93;;;;;;;;;;4971396;28;20026;-74
2022/01/30 08:21:29;;;;;;;15.23;4.60;;;;;;;;;;4971803;28;20042;-73
2022/01/30 08:23:55;;;;;;;10.48;4.40;;;;;;;;;;4977961;28;20027;-73
2022/01/30 08:26:20;;;;;;;10.15;4.60;;;;;;;;;;4985743;28;20029;-74
2022/01/30 08:28:45;;;;;;;15.73;5.07;;;;;;;;;;4979071;28;20057;-75
2022/01/30 08:31:11;;;;;;;15.00;7.03;;;;;;;;;;4991041;28;20033;-74
2022/01/30 08:33:36;;;;;;;32.33;15.50;;;;;;;;;;4991194;28;20037;-75
2022/01/30 08:36:02;;;;;;;27.98;13.30;;;;;;;;;;4991635;28;20499;-75
2022/01/30 08:38:27;;;;;;;33.88;15.35;;;;;;;;;;4990069;28;20081;-75
2022/01/30 08:40:52;;;;;;;22.92;10.18;;;;;;;;;;4990624;28;20560;-73
2022/01/30 08:43:21;;;;;;;28.92;9.60;;;;;;;;;;4991102;28;20049;-75
2022/01/30 08:45:48;;;;;;;16.42;7.78;;;;;;;;;;4991236;28;20034;-75
2022/01/30 08:48:14;;;;;;;17.88;5.88;;;;;;;;;;4990898;28;20350;-75
2022/01/30 08:50:39;;;;;;;22.55;7.03;;;;;;;;;;4991549;28;20042;-74
2022/01/30 08:53:05;;;;;;;17.55;6.68;;;;;;;;;;4990629;28;20439;-75
2022/01/30 08:55:30;;;;;;;16.90;6.45;;;;;;;;;;4991756;28;20332;-76
2022/01/30 08:57:57;;;;;;;20.08;8.25;;;;;;;;;;4990512;28;20037;-74
2022/01/30 09:00:23;;;;;;;17.27;5.47;;;;;;;;;;4990897;28;20030;-75
2022/01/30 09:02:48;;;;;;;16.85;7.88;;;;;;;;;;4990095;28;20439;-75
2022/01/30 09:05:13;;;;;;;14.90;5.18;;;;;;;;;;4990738;28;20022;-74
2022/01/30 09:07:40;;;;;;;10.88;3.55;;;;;;;;;;4990480;28;20040;-75
2022/01/30 09:10:08;;;;;;;11.90;3.92;;;;;;;;;;4989799;28;20034;-76
2022/01/30 09:12:34;;;;;;;9.70;4.60;;;;;;;;;;4990822;28;20031;-76
2022/01/30 09:15:01;;;;;;;10.98;4.05;;;;;;;;;;4989713;28;20129;-76
2022/01/30 09:17:28;;;;;;;14.27;4.47;;;;;;;;;;4990349;28;20034;-74
2022/01/30 09:19:53;;;;;;;13.02;3.83;;;;;;;;;;4990094;28;20026;-77
2022/01/30 09:22:19;;;;;;;7.90;4.30;;;;;;;;;;4990201;28;20326;-76
2022/01/30 09:24:45;;;;;;;10.32;3.80;;;;;;;;;;4988816;28;20389;-75
2022/01/30 09:27:10;;;;;;;10.77;4.15;;;;;;;;;;4990658;28;20106;-76
2022/01/30 09:29:37;;;;;;;12.07;4.25;;;;;;;;;;4990985;28;20429;-77
2022/01/30 09:32:04;;;;;;;8.43;3.28;;;;;;;;;;4992635;28;20082;-75
2022/01/30 09:34:29;;;;;;;10.85;2.92;;;;;;;;;;4991652;28;20037;-77
2022/01/30 09:36:55;;;;;;;12.85;4.68;;;;;;;;;;4991356;28;20026;-76
2022/01/30 09:39:22;;;;;;;15.07;4.40;;;;;;;;;;4995009;28;20520;-76
2022/01/30 09:41:50;;;;;;;9.80;4.05;;;;;;;;;;4990525;28;20026;-76
2022/01/30 09:44:16;;;;;;;12.50;3.35;;;;;;;;;;4992276;28;20019;-76
2022/01/30 09:46:43;;;;;;;9.07;2.60;;;;;;;;;;4990955;28;20062;-75
2022/01/30 09:49:10;;;;;;;10.35;3.33;;;;;;;;;;4991455;28;20033;-76
2022/01/30 09:51:40;;;;;;;13.45;4.22;;;;;;;;;;4992412;28;20392;-76
2022/01/30 09:54:07;;;;;;;10.18;3.30;;;;;;;;;;4991164;28;20484;-76
2022/01/30 09:56:33;;;;;;;11.63;6.05;;;;;;;;;;4993661;28;20116;-77
2022/01/30 09:58:58;;;;;;;11.20;3.08;;;;;;;;;;4976169;28;20105;-76
2022/01/30 10:01:33;;;;;;;12.82;3.42;;;;;;;;;;4972285;28;20038;-77
2022/01/30 10:03:59;;;;;;;10.75;3.53;;;;;;;;;;4971693;28;20022;-75
2022/01/30 10:06:31;;;;;;;7.97;2.58;;;;;;;;;;4972107;28;20417;-75
2022/01/30 10:08:57;;;;;;;12.07;4.30;;;;;;;;;;4972404;28;20023;-76
2022/01/30 10:14:10;;;;;;;10.55;2.67;;;;;;;;;;4971104;28;20042;-76
2022/01/30 10:16:36;;;;;;;8.50;2.53;;;;;;;;;;4971331;28;20112;-76
2022/01/30 10:19:10;;;;;;;5.47;2.30;;;;;;;;;;4970276;28;20035;-76
2022/01/30 10:21:35;;;;;;;8.73;2.10;;;;;;;;;;4969737;28;20054;-76
2022/01/30 10:24:17;;;;;;;10.68;3.40;;;;;;;;;;4963850;28;20278;-75
2022/01/30 10:26:42;;;;;;;10.30;2.85;;;;;;;;;;4970668;28;20113;-75
2022/01/30 10:29:27;;;;;;;11.15;2.42;;;;;;;;;;4970673;28;20556;-75
2022/01/30 10:32:07;;;;;;;7.90;2.20;;;;;;;;;;4971278;28;20109;-76
2022/01/30 10:34:34;;;;;;;8.85;2.70;;;;;;;;;;4972055;28;20022;-75
2022/01/30 10:37:19;;;;;;;14.07;4.53;;;;;;;;;;4970760;28;20110;-76
2022/01/30 10:40:10;;;;;;;13.93;3.03;;;;;;;;;;4969914;28;20034;-76
2022/01/30 10:42:53;;;;;;;6.60;2.70;;;;;;;;;;4970969;28;20560;-77
2022/01/30 10:45:19;;;;;;;7.90;3.33;;;;;;;;;;4971414;28;20082;-76
2022/01/30 10:47:45;;;;;;;6.88;2.00;;;;;;;;;;4971500;28;20026;-76
2022/01/30 10:50:18;;;;;;;8.60;2.63;;;;;;;;;;4970994;28;20035;-75
2022/01/30 10:52:55;;;;;;;10.30;4.90;;;;;;;;;;4972530;28;20023;-76
2022/01/30 10:55:43;;;;;;;11.27;2.85;;;;;;;;;;4972994;28;20039;-76
2022/01/30 10:58:15;;;;;;;9.70;2.53;;;;;;;;;;4978186;28;20025;-75
2022/01/30 11:01:01;;;;;;;8.10;2.45;;;;;;;;;;4983539;28;20041;-76
2022/01/30 11:03:40;;;;;;;6.60;1.77;;;;;;;;;;4974096;28;20042;-75
2022/01/30 11:06:11;;;;;;;8.35;2.83;;;;;;;;;;4973243;28;20050;-74
2022/01/30 11:08:44;;;;;;;6.95;1.95;;;;;;;;;;4974366;28;20109;-77
2022/01/30 11:17:02;;;;;;;12.43;2.50;;;;;;;;;;4973329;28;20126;-76
2022/01/30 11:19:30;;;;;;;5.93;2.15;;;;;;;;;;4973939;28;20277;-76
2022/01/30 11:22:03;;;;;;;6.80;1.60;;;;;;;;;;4974968;28;20031;-76
2022/01/30 11:24:28;;;;;;;;;;;;;;;;;;4974382;28;20023;-76
2022/01/30 11:26:54;;;;;;;6.70;1.63;;;;;;;;;;4974531;28;19917;-77
2022/01/30 11:29:20;;;;;;;5.38;2.20;;;;;;;;;;4975541;28;20038;-76
2022/01/30 11:31:47;;;;;;;8.98;2.33;;;;;;;;;;4974217;28;20029;-76
2022/01/30 11:34:13;;;;;;;8.75;2.17;;;;;;;;;;4974425;28;20346;-77
2022/01/30 11:36:41;;;;;;;6.72;2.00;;;;;;;;;;4973649;28;20043;-77
2022/01/30 11:39:08;;;;;;;6.18;1.83;;;;;;;;;;4972579;28;20449;-77
2022/01/30 11:41:34;;;;;;;7.90;1.58;;;;;;;;;;4973666;28;20061;-76
2022/01/30 11:44:18;;;;;;;8.98;1.95;;;;;;;;;;4974088;28;20110;-77
2022/01/30 11:46:53;;;;;;;6.38;2.40;;;;;;;;;;4972719;28;20042;-75
2022/01/30 11:49:19;;;;;;;7.85;2.40;;;;;;;;;;4972453;28;20035;-75
2022/01/30 11:51:52;;;;;;;6.78;2.25;;;;;;;;;;4972932;28;20031;-76
2022/01/30 11:54:48;;;;;;;6.50;2.00;;;;;;;;;;4973527;28;20495;-74
2022/01/30 11:57:22;;;;;;;6.88;2.88;;;;;;;;;;4973654;28;20034;-76
2022/01/30 11:59:53;;;;;;;8.27;1.70;;;;;;;;;;4972986;28;20031;-75
2022/01/30 12:02:31;;;;;;;11.18;2.53;;;;;;;;;;4972719;28;20412;-76
2022/01/30 12:05:03;;;;;;;8.82;1.90;;;;;;;;;;4972380;28;20037;-76
2022/01/30 12:07:39;;;;;;;9.18;2.00;;;;;;;;;;4973771;28;20440;-77
2022/01/30 12:10:19;;;;;;;9.65;2.17;;;;;;;;;;4972811;28;20023;-76
2022/01/30 12:12:59;;;;;;;8.00;2.00;;;;;;;;;;4974330;28;20034;-76
2022/01/30 12:15:37;;;;;;;7.65;2.50;;;;;;;;;;4971843;28;20027;-74
2022/01/30 12:18:04;;;;;;;5.30;1.95;;;;;;;;;;4973427;28;20026;-73
2022/01/30 12:20:32;;;;;;;7.45;2.13;;;;;;;;;;4971474;28;20026;-77
2022/01/30 12:22:58;;;;;;;7.35;2.00;;;;;;;;;;4973295;28;20027;-76
2022/01/30 12:25:30;;;;;;;6.85;1.83;;;;;;;;;;4973181;28;20101;-77
2022/01/30 12:28:02;;;;;;;6.78;2.10;;;;;;;;;;4974351;28;20026;-77
2022/01/30 12:30:49;;;;;;;6.80;2.10;;;;;;;;;;4973082;28;20038;-76
2022/01/30 12:33:35;;;;;;;7.88;2.13;;;;;;;;;;4976365;28;20038;-77
2022/01/30 12:36:11;;;;;;;6.07;1.77;;;;;;;;;;4973444;28;20031;-74
2022/01/30 12:38:36;;;;;;;5.47;1.65;;;;;;;;;;4974720;28;20030;-76
2022/01/30 12:41:13;;;;;;;10.10;1.80;;;;;;;;;;4974831;28;20026;-76
2022/01/30 12:43:38;;;;;;;7.72;2.30;;;;;;;;;;4973877;28;20512;-77
2022/01/30 12:46:05;;;;;;;9.98;2.40;;;;;;;;;;4973808;28;20105;-77
2022/01/30 12:48:31;;;;;;;7.95;1.60;;;;;;;;;;4973682;28;20022;-77
2022/01/30 12:51:02;;;;;;;13.70;2.35;;;;;;;;;;4973117;28;20127;-76
2022/01/30 12:53:28;;;;;;;7.07;2.22;;;;;;;;;;4972790;28;20026;-76
2022/01/30 12:55:53;;;;;;;11.82;2.40;;;;;;;;;;4971176;28;20568;-77
2022/01/30 12:58:20;;;;;;;9.93;2.25;;;;;;;;;;4987455;28;20053;-75
2022/01/30 13:00:45;;;;;;;11.88;2.72;;;;;;;;;;4970182;28;20027;-77
2022/01/30 13:03:18;;;;;;;6.38;1.98;;;;;;;;;;4973411;28;20118;-76
2022/01/30 13:05:44;;;;;;;6.07;2.40;;;;;;;;;;4973291;28;20023;-77
2022/01/30 13:08:09;;;;;;;7.63;2.05;;;;;;;;;;4971943;28;20201;-74
2022/01/30 13:10:34;;;;;;;9.80;3.05;;;;;;;;;;4972364;28;20081;-77
2022/01/30 13:13:00;;;;;;;12.10;2.70;;;;;;;;;;4972720;28;20282;-77
2022/01/30 13:15:27;;;;;;;8.15;2.65;;;;;;;;;;4962510;28;20078;-76
2022/01/30 13:17:53;;;;;;;8.85;2.30;;;;;;;;;;4957584;28;20045;-74
2022/01/30 13:20:27;;;;;;;12.38;3.85;;;;;;;;;;4972913;28;20030;-77
2022/01/30 13:22:53;;;;;;;10.65;3.58;;;;;;;;;;4972389;28;20035;-76
2022/01/30 13:25:20;;;;;;;11.00;2.33;;;;;;;;;;4974392;28;20093;-77
2022/01/30 13:27:47;;;;;;;4.20;1.45;;;;;;;;;;4974533;28;20500;-76
2022/01/30 13:30:24;;;;;;;9.07;1.70;;;;;;;;;;4973037;28;20034;-78
2022/01/30 13:32:51;;;;;;;8.52;1.98;;;;;;;;;;4972410;28;20247;-77
2022/01/30 13:35:19;;;;;;;6.80;2.03;;;;;;;;;;4973550;28;20027;-76
2022/01/30 13:37:45;;;;;;;6.63;2.08;;;;;;;;;;4965821;28;20097;-75
2022/01/30 13:40:20;;;;;;;10.73;3.42;;;;;;;;;;4954505;28;20489;-77
2022/01/30 13:42:54;;;;;;;6.68;1.92;;;;;;;;;;4953062;28;20030;-76
2022/01/30 13:48:15;;;;;;;9.55;2.50;;;;;;;;;;4962675;28;20035;-77
2022/01/30 13:50:45;;;;;;;10.23;4.00;;;;;;;;;;4977384;28;20031;-77
2022/01/30 13:53:24;;;;;;;6.30;2.00;;;;;;;;;;4975232;28;20099;-76
2022/01/30 13:56:11;;;;;;;10.38;3.38;;;;;;;;;;4979330;28;20031;-77
2022/01/30 13:58:37;;;;;;;6.97;2.42;;;;;;;;;;4960492;28;20051;-76
2022/01/30 14:01:03;;;;;;;7.82;2.70;;;;;;;;;;4957068;28;20027;-76
2022/01/30 14:03:29;;;;;;;7.30;2.42;;;;;;;;;;4955645;28;20023;-77
2022/01/30 14:05:55;;;;;;;10.27;2.00;;;;;;;;;;4955215;28;20077;-76
2022/01/30 14:08:21;;;;;;;7.93;2.45;;;;;;;;;;4965150;28;20026;-76
2022/01/30 14:10:49;;;;;;;6.43;2.10;;;;;;;;;;4974637;28;20026;-77
2022/01/30 14:13:22;;;;;;;5.15;1.83;;;;;;;;;;4970755;28;20035;-77
2022/01/30 14:16:05;;;;;;;6.20;1.60;;;;;;;;;;4973275;28;20034;-77
2022/01/30 14:18:35;;;;;;;9.52;2.15;;;;;;;;;;4962872;28;20043;-77
2022/01/30 14:21:01;;;;;;;7.45;1.98;;;;;;;;;;4955716;28;20203;-75
2022/01/30 14:23:34;;;;;;;8.00;1.92;;;;;;;;;;4956735;28;20035;-75
2022/01/30 14:25:59;;;;;;;;;;;;;;;;;;4959820;28;20042;-77
2022/01/30 14:28:24;;;;;;;10.30;2.92;;;;;;;;;;4972499;28;19938;-77
2022/01/30 14:30:50;;;;;;;11.48;3.03;;;;;;;;;;4977618;28;20111;-76
2022/01/30 14:33:16;;;;;;;15.20;3.80;;;;;;;;;;4974356;28;20057;-78
2022/01/30 14:35:42;;;;;;;15.00;4.05;;;;;;;;;;4980039;28;20027;-77
2022/01/30 14:38:09;;;;;;;22.23;5.90;;;;;;;;;;4965643;28;20046;-77
2022/01/30 14:40:37;;;;;;;12.88;2.92;;;;;;;;;;4961870;28;20088;-77
2022/01/30 14:43:10;;;;;;;10.27;2.40;;;;;;;;;;4975631;28;20046;-76
2022/01/30 14:45:37;;;;;;;9.75;1.92;;;;;;;;;;4970611;28;20015;-78
2022/01/30 14:48:03;;;;;;;9.00;2.25;;;;;;;;;;4975425;28;20038;-76
2022/01/30 14:50:30;;;;;;;7.63;2.20;;;;;;;;;;4978651;28;20030;-76
2022/01/30 14:52:57;;;;;;;6.45;2.58;;;;;;;;;;4994680;28;20032;-77
2022/01/30 14:55:23;;;;;;;15.10;6.18;;;;;;;;;;4996155;28;20034;-76
2022/01/30 14:57:51;;;;;;;12.00;3.72;;;;;;;;;;4974331;28;20035;-75
2022/01/30 15:00:18;;;;;;;8.00;2.25;;;;;;;;;;4976719;28;20102;-77
2022/01/30 15:02:45;;;;;;;9.75;3.25;;;;;;;;;;4975812;28;20029;-78
2022/01/30 15:05:11;;;;;;;5.22;2.20;;;;;;;;;;4967333;28;20015;-76
2022/01/30 15:07:36;;;;;;;9.75;3.03;;;;;;;;;;4980462;28;20481;-75
2022/01/30 15:10:03;;;;;;;8.40;2.55;;;;;;;;;;4974145;28;20114;-77
2022/01/30 15:12:28;;;;;;;7.90;2.17;;;;;;;;;;4973060;28;20432;-76
2022/01/30 15:14:54;;;;;;;9.55;2.15;;;;;;;;;;4972976;28;20023;-75
2022/01/30 15:17:29;;;;;;;7.57;1.88;;;;;;;;;;4972421;28;20073;-75
2022/01/30 15:19:54;;;;;;;6.95;2.00;;;;;;;;;;4974027;28;20018;-73
2022/01/30 15:22:22;;;;;;;9.07;2.10;;;;;;;;;;4972339;28;20385;-74
2022/01/30 15:24:51;;;;;;;7.95;2.10;;;;;;;;;;4971207;28;20943;-75
2022/01/30 15:27:17;;;;;;;10.30;2.53;;;;;;;;;;4965518;28;20031;-75
2022/01/30 15:29:42;;;;;;;7.65;2.20;;;;;;;;;;4972351;28;20050;-74
2022/01/30 15:32:07;;;;;;;7.20;2.10;;;;;;;;;;4954101;28;20031;-74
2022/01/30 15:34:32;;;;;;;8.02;2.70;;;;;;;;;;4959827;28;20612;-76
2022/01/30 15:36:58;;;;;;;10.63;2.53;;;;;;;;;;4971744;28;20031;-74
2022/01/30 15:39:23;;;;;;;15.00;4.60;;;;;;;;;;4972214;28;20056;-74
2022/01/30 15:41:48;;;;;;;8.60;2.40;;;;;;;;;;4971787;28;20030;-73